createdAt,value
2017-09-29T00:01:50.972Z,-59
2017-09-29T00:04:19.271Z,-59
2017-09-29T00:06:50.409Z,-61
2017-09-29T00:09:18.669Z,-59
2017-09-29T00:11:46.942Z,-59
2017-09-29T00:14:16.852Z,-59
2017-09-29T00:16:45.656Z,-61
2017-09-29T00:19:14.759Z,-61
2017-09-29T00:21:43.375Z,-61
2017-09-29T00:24:12.604Z,-63
2017-09-29T00:26:41.002Z,-61
2017-09-29T00:29:09.599Z,-61
2017-09-29T00:31:38.343Z,-61
2017-09-29T00:34:07.041Z,-62
2017-09-29T00:36:35.691Z,-61
2017-09-29T00:39:04.759Z,-59
2017-09-29T00:41:33.699Z,-59
2017-09-29T00:44:02.248Z,-60
2017-09-29T00:46:31.334Z,-60
2017-09-29T00:48:59.703Z,-60
2017-09-29T00:51:28.465Z,-59
2017-09-29T00:53:57.179Z,-60
2017-09-29T00:56:25.914Z,-60
2017-09-29T00:58:54.301Z,-60
2017-09-29T01:01:22.816Z,-60
2017-09-29T01:03:51.181Z,-60
2017-09-29T01:06:19.576Z,-60
2017-09-29T01:08:48.011Z,-60
2017-09-29T01:11:16.537Z,-60
2017-09-29T01:13:44.975Z,-60
2017-09-29T01:16:13.585Z,-60
2017-09-29T01:18:42.169Z,-60
2017-09-29T01:21:11.290Z,-60
2017-09-29T01:23:39.716Z,-59
2017-09-29T01:26:08.138Z,-58
2017-09-29T01:28:36.526Z,-58
2017-09-29T01:31:04.907Z,-58
2017-09-29T01:33:35.079Z,-58
2017-09-29T01:36:03.559Z,-58
2017-09-29T01:38:32.319Z,-61
2017-09-29T01:41:01.052Z,-61
2017-09-29T01:43:29.500Z,-61
2017-09-29T01:45:57.991Z,-61
2017-09-29T01:48:26.439Z,-61
2017-09-29T01:50:54.979Z,-61
2017-09-29T01:53:23.680Z,-61
2017-09-29T01:55:52.122Z,-62
2017-09-29T01:58:20.703Z,-61
2017-09-29T02:00:49.879Z,-61
2017-09-29T02:03:18.735Z,-61
2017-09-29T02:05:47.191Z,-61
2017-09-29T02:08:15.585Z,-61
2017-09-29T02:10:44.022Z,-61
2017-09-29T02:13:13.483Z,-61
2017-09-29T02:15:41.987Z,-61
2017-09-29T02:18:10.435Z,-61
2017-09-29T02:20:38.883Z,-61
2017-09-29T02:23:07.431Z,-61
2017-09-29T02:25:36.318Z,-61
2017-09-29T02:28:04.960Z,-61
2017-09-29T02:30:33.387Z,-61
2017-09-29T02:33:03.356Z,-61
2017-09-29T02:35:32.266Z,-61
2017-09-29T02:38:00.752Z,-61
2017-09-29T02:40:29.215Z,-61
2017-09-29T02:42:57.918Z,-61
2017-09-29T02:45:26.407Z,-61
2017-09-29T02:47:55.084Z,-61
2017-09-29T02:50:23.775Z,-61
2017-09-29T02:52:52.900Z,-61
2017-09-29T02:55:21.555Z,-60
2017-09-29T02:57:56.487Z,-59
2017-09-29T03:00:33.518Z,-59
2017-09-29T03:03:07.816Z,-59
2017-09-29T03:05:58.253Z,-58
2017-09-29T03:08:27.208Z,-60
2017-09-29T03:10:55.880Z,-60
2017-09-29T03:13:24.202Z,-58
2017-09-29T03:15:53.099Z,-58
2017-09-29T03:18:21.419Z,-61
2017-09-29T03:20:49.776Z,-60
2017-09-29T03:23:18.199Z,-60
2017-09-29T03:25:46.552Z,-60
2017-09-29T03:28:16.361Z,-60
2017-09-29T03:30:44.718Z,-59
2017-09-29T03:33:13.324Z,-59
2017-09-29T03:35:41.675Z,-59
2017-09-29T03:38:10.187Z,-62
2017-09-29T03:40:38.631Z,-61
2017-09-29T03:43:06.916Z,-61
2017-09-29T03:45:35.256Z,-60
2017-09-29T03:48:04.418Z,-58
2017-09-29T03:50:45.731Z,-58
2017-09-29T03:53:18.311Z,-58
2017-09-29T03:55:53.363Z,-58
2017-09-29T03:58:27.255Z,-58
2017-09-29T04:00:55.682Z,-58
2017-09-29T04:03:24.130Z,-61
2017-09-29T04:05:52.903Z,-60
2017-09-29T04:08:22.481Z,-61
2017-09-29T04:10:51.049Z,-61
2017-09-29T04:13:19.855Z,-60
2017-09-29T04:15:48.473Z,-61
2017-09-29T04:18:17.537Z,-60
2017-09-29T04:20:45.945Z,-60
2017-09-29T04:23:14.367Z,-61
2017-09-29T04:25:43.084Z,-60
2017-09-29T04:28:11.663Z,-61
2017-09-29T04:30:40.355Z,-60
2017-09-29T04:33:09.039Z,-61
2017-09-29T04:35:37.473Z,-60
2017-09-29T04:38:05.876Z,-61
2017-09-29T04:40:34.971Z,-61
2017-09-29T04:43:03.376Z,-61
2017-09-29T04:45:32.823Z,-61
2017-09-29T04:48:01.183Z,-60
2017-09-29T04:50:29.644Z,-60
2017-09-29T04:52:58.223Z,-61
2017-09-29T04:55:26.845Z,-62
2017-09-29T04:57:55.291Z,-61
2017-09-29T05:00:23.762Z,-61
2017-09-29T05:02:52.128Z,-61
2017-09-29T05:05:20.956Z,-61
2017-09-29T05:07:49.537Z,-60
2017-09-29T05:10:18.109Z,-57
2017-09-29T05:12:46.580Z,-57
2017-09-29T05:15:14.955Z,-57
2017-09-29T05:17:43.435Z,-58
2017-09-29T05:20:11.814Z,-58
2017-09-29T05:22:40.238Z,-58
2017-09-29T05:25:10.611Z,-58
2017-09-29T05:27:38.971Z,-58
2017-09-29T05:30:08.119Z,-58
2017-09-29T05:32:36.703Z,-58
2017-09-29T05:35:05.080Z,-58
2017-09-29T05:37:33.664Z,-58
2017-09-29T05:40:02.111Z,-58
2017-09-29T05:42:30.500Z,-58
2017-09-29T05:44:58.901Z,-58
2017-09-29T05:47:27.639Z,-58
2017-09-29T05:49:56.736Z,-58
2017-09-29T05:52:25.111Z,-58
2017-09-29T05:54:53.578Z,-58
2017-09-29T05:57:21.971Z,-58
2017-09-29T05:59:51.243Z,-58
2017-09-29T06:02:19.680Z,-58
2017-09-29T06:04:48.135Z,-58
2017-09-29T06:07:16.459Z,-57
2017-09-29T06:09:44.887Z,-57
2017-09-29T06:12:13.651Z,-57
2017-09-29T06:14:41.952Z,-57
2017-09-29T06:17:11.223Z,-57
2017-09-29T06:19:39.887Z,-58
2017-09-29T06:22:08.189Z,-57
2017-09-29T06:24:36.596Z,-57
2017-09-29T06:27:05.147Z,-58
2017-09-29T06:29:33.453Z,-57
2017-09-29T06:32:02.963Z,-58
2017-09-29T06:34:32.179Z,-58
2017-09-29T06:37:00.708Z,-58
2017-09-29T06:39:29.032Z,-58
2017-09-29T06:41:58.259Z,-58
2017-09-29T06:44:26.607Z,-58
2017-09-29T06:46:56.123Z,-58
2017-09-29T06:49:25.218Z,-58
2017-09-29T06:51:54.349Z,-58
2017-09-29T06:54:22.734Z,-58
2017-09-29T06:56:51.067Z,-58
2017-09-29T06:59:20.143Z,-58
2017-09-29T07:01:48.761Z,-58
2017-09-29T07:04:17.156Z,-58
2017-09-29T07:06:46.111Z,-58
2017-09-29T07:09:14.486Z,-58
2017-09-29T07:11:43.555Z,-58
2017-09-29T07:14:12.811Z,-58
2017-09-29T07:16:41.167Z,-57
2017-09-29T07:19:10.253Z,-58
2017-09-29T07:21:38.615Z,-58
2017-09-29T07:24:07.180Z,-58
2017-09-29T07:26:41.415Z,-58
2017-09-29T07:29:15.110Z,-58
2017-09-29T07:31:50.120Z,-58
2017-09-29T07:34:18.527Z,-58
2017-09-29T07:36:46.881Z,-58
2017-09-29T07:39:15.252Z,-58
2017-09-29T07:41:43.642Z,-58
2017-09-29T07:44:11.999Z,-58
2017-09-29T07:46:40.702Z,-60
2017-09-29T07:49:09.512Z,-56
2017-09-29T07:51:37.957Z,-56
2017-09-29T07:54:06.267Z,-56
2017-09-29T07:56:34.606Z,-58
2017-09-29T07:59:03.842Z,-59
2017-09-29T08:01:32.224Z,-58
2017-09-29T08:04:00.573Z,-58
2017-09-29T08:06:28.892Z,-58
2017-09-29T08:08:57.337Z,-58
2017-09-29T08:11:26.085Z,-59
2017-09-29T08:13:54.494Z,-58
2017-09-29T08:16:22.795Z,-58
2017-09-29T08:18:51.144Z,-58
2017-09-29T08:21:20.235Z,-59
2017-09-29T08:23:49.410Z,-58
2017-09-29T08:26:17.960Z,-58
2017-09-29T08:28:46.289Z,-58
2017-09-29T08:31:15.522Z,-59
2017-09-29T08:33:43.987Z,-58
2017-09-29T08:36:12.624Z,-58
2017-09-29T08:38:40.962Z,-58
2017-09-29T08:41:09.283Z,-58
2017-09-29T08:43:37.604Z,-58
2017-09-29T08:46:05.922Z,-58
2017-09-29T08:48:34.315Z,-58
2017-09-29T08:51:02.646Z,-58
2017-09-29T08:53:30.971Z,-58
2017-09-29T08:55:59.503Z,-58
2017-09-29T08:58:27.824Z,-58
2017-09-29T09:00:56.668Z,-62
2017-09-29T09:03:25.010Z,-59
2017-09-29T09:05:53.446Z,-58
2017-09-29T09:08:22.045Z,-59
2017-09-29T09:10:50.545Z,-59
2017-09-29T09:13:18.896Z,-58
2017-09-29T09:15:47.258Z,-58
2017-09-29T09:18:15.578Z,-58
2017-09-29T09:20:44.292Z,-58
2017-09-29T09:23:13.535Z,-58
2017-09-29T09:25:41.893Z,-58
2017-09-29T09:28:11.139Z,-58
2017-09-29T09:30:39.613Z,-58
2017-09-29T09:33:07.986Z,-58
2017-09-29T09:35:36.678Z,-58
2017-09-29T09:38:05.019Z,-58
2017-09-29T09:40:33.328Z,-58
2017-09-29T09:43:01.784Z,-58
2017-09-29T09:45:30.131Z,-58
2017-09-29T09:47:59.259Z,-58
2017-09-29T09:50:27.604Z,-58
2017-09-29T09:52:55.946Z,-58
2017-09-29T09:55:24.391Z,-57
2017-09-29T09:57:52.715Z,-58
2017-09-29T10:00:21.595Z,-58
2017-09-29T10:02:50.048Z,-59
2017-09-29T10:05:18.591Z,-58
2017-09-29T10:07:46.914Z,-60
2017-09-29T10:10:15.463Z,-59
2017-09-29T10:12:44.522Z,-56
2017-09-29T10:15:13.203Z,-56
2017-09-29T10:17:41.550Z,-56
2017-09-29T10:20:09.843Z,-60
2017-09-29T10:22:38.628Z,-58
2017-09-29T10:25:07.243Z,-56
2017-09-29T10:27:35.648Z,-56
2017-09-29T10:30:05.401Z,-56
2017-09-29T10:32:33.727Z,-56
2017-09-29T10:35:02.166Z,-56
2017-09-29T10:37:30.668Z,-56
2017-09-29T10:39:58.972Z,-56
2017-09-29T10:42:27.655Z,-56
2017-09-29T10:44:55.962Z,-56
2017-09-29T10:47:24.302Z,-56
2017-09-29T10:49:52.737Z,-56
2017-09-29T10:52:21.062Z,-56
2017-09-29T10:54:49.343Z,-56
2017-09-29T10:57:17.696Z,-56
2017-09-29T10:59:46.307Z,-56
2017-09-29T11:02:14.599Z,-56
2017-09-29T11:04:42.945Z,-56
2017-09-29T11:07:11.543Z,-56
2017-09-29T11:09:39.868Z,-56
2017-09-29T11:12:08.191Z,-56
2017-09-29T11:14:36.524Z,-56
2017-09-29T11:17:09.733Z,-56
2017-09-29T11:19:42.656Z,-61
2017-09-29T11:22:11.169Z,-58
2017-09-29T11:24:40.524Z,-60
2017-09-29T11:27:09.411Z,-59
2017-09-29T11:29:37.679Z,-59
2017-09-29T11:32:06.023Z,-57
2017-09-29T11:34:35.210Z,-56
2017-09-29T11:37:03.523Z,-57
2017-09-29T11:39:31.844Z,-59
2017-09-29T11:42:00.347Z,-59
2017-09-29T11:44:29.449Z,-59
2017-09-29T11:46:58.702Z,-59
2017-09-29T11:49:27.767Z,-59
2017-09-29T11:51:56.067Z,-59
2017-09-29T11:54:24.372Z,-59
2017-09-29T11:56:52.711Z,-58
2017-09-29T11:59:21.096Z,-59
2017-09-29T12:01:49.461Z,-59
2017-09-29T12:04:17.865Z,-59
2017-09-29T12:06:46.199Z,-59
2017-09-29T12:09:15.302Z,-59
2017-09-29T12:11:44.369Z,-59
2017-09-29T12:14:13.438Z,-59
2017-09-29T12:16:41.764Z,-56
2017-09-29T12:19:10.792Z,-56
2017-09-29T12:21:39.096Z,-56
2017-09-29T12:24:08.535Z,-56
2017-09-29T12:26:36.890Z,-56
2017-09-29T12:29:05.430Z,-56
2017-09-29T12:31:33.998Z,-56
2017-09-29T12:34:02.291Z,-56
2017-09-29T12:36:30.631Z,-57
2017-09-29T12:38:59.738Z,-56
2017-09-29T12:41:28.983Z,-56
2017-09-29T12:43:57.447Z,-56
2017-09-29T12:46:25.758Z,-56
2017-09-29T12:48:54.068Z,-56
2017-09-29T12:51:23.702Z,-56
2017-09-29T12:53:52.037Z,-56
2017-09-29T12:56:20.334Z,-56
2017-09-29T12:58:49.371Z,-56
2017-09-29T13:01:18.135Z,-56
2017-09-29T13:03:46.474Z,-56
2017-09-29T13:06:14.997Z,-56
2017-09-29T13:08:43.271Z,-56
2017-09-29T13:11:11.955Z,-57
2017-09-29T13:13:40.251Z,-56
2017-09-29T13:16:08.857Z,-56
2017-09-29T13:18:37.199Z,-56
2017-09-29T13:21:06.228Z,-56
2017-09-29T13:23:34.747Z,-56
2017-09-29T13:26:03.043Z,-56
2017-09-29T13:28:31.307Z,-56
2017-09-29T13:31:00.360Z,-56
2017-09-29T13:33:28.668Z,-56
2017-09-29T13:35:57.204Z,-56
2017-09-29T13:38:25.571Z,-56
2017-09-29T13:40:55.247Z,-56
2017-09-29T13:43:24.294Z,-56
2017-09-29T13:45:52.987Z,-56
2017-09-29T13:48:21.310Z,-57
2017-09-29T13:50:50.457Z,-58
2017-09-29T13:53:18.821Z,-56
2017-09-29T13:55:47.162Z,-58
2017-09-29T13:58:16.250Z,-58
2017-09-29T14:00:45.439Z,-58
2017-09-29T14:03:13.985Z,-58
2017-09-29T14:05:42.314Z,-58
2017-09-29T14:08:11.619Z,-58
2017-09-29T14:10:41.082Z,-58
2017-09-29T14:13:09.663Z,-56
2017-09-29T14:15:40.213Z,-56
2017-09-29T14:18:09.186Z,-56
2017-09-29T14:20:38.284Z,-56
2017-09-29T14:23:06.970Z,-56
2017-09-29T14:25:35.659Z,-56
2017-09-29T14:28:04.342Z,-61
2017-09-29T14:30:32.824Z,-61
2017-09-29T14:33:01.307Z,-61
2017-09-29T14:35:29.598Z,-61
2017-09-29T14:37:58.066Z,-61
2017-09-29T14:40:26.955Z,-61
2017-09-29T14:42:55.643Z,-60
2017-09-29T14:45:23.971Z,-60
2017-09-29T14:47:53.223Z,-60
2017-09-29T14:50:21.499Z,-61
2017-09-29T14:52:49.792Z,-61
2017-09-29T14:55:18.222Z,-61
2017-09-29T14:57:46.531Z,-60
2017-09-29T15:00:14.963Z,-61
2017-09-29T15:02:43.546Z,-60
2017-09-29T15:05:12.587Z,-61
2017-09-29T15:07:40.910Z,-61
2017-09-29T15:10:09.359Z,-61
2017-09-29T15:12:37.619Z,-61
2017-09-29T15:15:05.953Z,-61
2017-09-29T15:17:35.022Z,-61
2017-09-29T15:20:03.706Z,-61
2017-09-29T15:22:32.029Z,-61
2017-09-29T15:25:00.348Z,-61
2017-09-29T15:27:28.923Z,-61
2017-09-29T15:29:57.372Z,-59
2017-09-29T15:32:25.670Z,-56
2017-09-29T15:34:54.033Z,-59
2017-09-29T15:37:22.614Z,-58
2017-09-29T15:39:51.244Z,-60
2017-09-29T15:42:19.612Z,-60
2017-09-29T15:44:47.974Z,-60
2017-09-29T15:47:16.413Z,-60
2017-09-29T15:49:45.655Z,-60
2017-09-29T15:52:14.155Z,-58
2017-09-29T15:54:42.503Z,-56
2017-09-29T15:57:10.861Z,-56
2017-09-29T15:59:39.791Z,-56
2017-09-29T16:02:08.143Z,-60
2017-09-29T16:04:37.210Z,-61
2017-09-29T16:07:05.579Z,-56
2017-09-29T16:09:33.910Z,-57
2017-09-29T16:12:02.233Z,-60
2017-09-29T16:14:30.898Z,-60
2017-09-29T16:16:59.392Z,-60
2017-09-29T16:19:27.711Z,-60
2017-09-29T16:21:57.202Z,-56
2017-09-29T16:24:25.523Z,-59
2017-09-29T16:26:53.854Z,-58
2017-09-29T16:29:22.955Z,-56
2017-09-29T16:31:51.275Z,-59
2017-09-29T16:34:19.651Z,-60
2017-09-29T16:36:47.979Z,-59
2017-09-29T16:39:16.283Z,-57
2017-09-29T16:41:44.642Z,-59
2017-09-29T16:44:14.317Z,-59
2017-09-29T16:46:42.629Z,-59
2017-09-29T16:49:11.081Z,-59
2017-09-29T16:51:39.765Z,-59
2017-09-29T16:54:08.257Z,-60
2017-09-29T16:56:37.187Z,-61
2017-09-29T16:59:07.005Z,-59
2017-09-29T17:01:35.351Z,-59
2017-09-29T17:04:04.022Z,-59
2017-09-29T17:06:32.870Z,-59
2017-09-29T17:09:01.199Z,-59
2017-09-29T17:11:29.494Z,-60
2017-09-29T17:13:57.819Z,-59
2017-09-29T17:16:26.136Z,-59
2017-09-29T17:18:54.484Z,-59
2017-09-29T17:21:22.807Z,-59
2017-09-29T17:23:51.134Z,-59
2017-09-29T17:26:19.533Z,-59
2017-09-29T17:28:48.303Z,-59
2017-09-29T17:31:16.668Z,-59
2017-09-29T17:33:45.008Z,-59
2017-09-29T17:36:13.458Z,-59
2017-09-29T17:38:41.850Z,-59
2017-09-29T17:41:10.391Z,-59
2017-09-29T17:43:38.736Z,-59
2017-09-29T17:46:07.224Z,-59
2017-09-29T17:48:35.620Z,-58
2017-09-29T17:51:03.971Z,-59
2017-09-29T17:53:33.511Z,-58
2017-09-29T17:56:01.928Z,-58
2017-09-29T17:58:30.261Z,-59
2017-09-29T18:00:58.604Z,-59
2017-09-29T18:03:27.167Z,-59
2017-09-29T18:05:55.516Z,-59
2017-09-29T18:08:24.129Z,-59
2017-09-29T18:10:53.327Z,-59
2017-09-29T18:13:22.935Z,-59
2017-09-29T18:15:52.440Z,-59
2017-09-29T18:18:21.746Z,-61
2017-09-29T18:20:51.043Z,-59
2017-09-29T18:23:20.343Z,-59
2017-09-29T18:25:49.643Z,-59
2017-09-29T18:28:18.944Z,-59
2017-09-29T18:30:48.374Z,-59
2017-09-29T18:33:17.340Z,-59
2017-09-29T18:35:46.470Z,-59
2017-09-29T18:38:15.740Z,-59
2017-09-29T18:40:44.646Z,-59
2017-09-29T18:43:14.388Z,-59
2017-09-29T18:45:43.539Z,-61
2017-09-29T18:48:13.456Z,-59
2017-09-29T18:50:42.559Z,-58
2017-09-29T18:53:13.490Z,-58
2017-09-29T18:55:42.382Z,-59
2017-09-29T18:58:11.273Z,-60
2017-09-29T19:00:39.589Z,-60
2017-09-29T19:03:08.151Z,-60
2017-09-29T19:05:36.698Z,-60
2017-09-29T19:08:05.003Z,-60
2017-09-29T19:10:33.328Z,-60
2017-09-29T19:13:02.390Z,-60
2017-09-29T19:15:30.822Z,-60
2017-09-29T19:17:59.162Z,-60
2017-09-29T19:20:27.823Z,-60
2017-09-29T19:22:56.140Z,-60
2017-09-29T19:25:25.183Z,-58
2017-09-29T19:27:53.499Z,-60
2017-09-29T19:30:21.944Z,-57
2017-09-29T19:32:50.253Z,-60
2017-09-29T19:35:18.728Z,-60
2017-09-29T19:37:46.994Z,-59
2017-09-29T19:40:15.667Z,-59
2017-09-29T19:42:44.132Z,-59
2017-09-29T19:45:12.515Z,-59
2017-09-29T19:47:40.808Z,-59
2017-09-29T19:50:09.107Z,-59
2017-09-29T19:52:37.432Z,-59
2017-09-29T19:55:05.716Z,-58
2017-09-29T19:57:34.132Z,-59
2017-09-29T20:00:02.435Z,-59
2017-09-29T20:02:32.229Z,-59
2017-09-29T20:05:00.509Z,-59
2017-09-29T20:07:28.803Z,-58
2017-09-29T20:09:57.822Z,-59
2017-09-29T20:12:26.128Z,-58
2017-09-29T20:14:54.422Z,-59
2017-09-29T20:17:37.610Z,-59
2017-09-29T20:20:06.131Z,-61
2017-09-29T20:22:34.434Z,-58
2017-09-29T20:25:03.052Z,-59
2017-09-29T20:27:31.384Z,-58
2017-09-29T20:29:59.722Z,-58
2017-09-29T20:32:28.040Z,-58
2017-09-29T20:34:56.597Z,-58
2017-09-29T20:37:24.937Z,-58
2017-09-29T20:39:53.493Z,-58
2017-09-29T20:42:21.837Z,-60
2017-09-29T20:44:50.283Z,-60
2017-09-29T20:47:18.605Z,-60
2017-09-29T20:49:47.444Z,-60
2017-09-29T20:52:15.909Z,-60
2017-09-29T20:54:44.407Z,-60
2017-09-29T20:57:12.932Z,-61
2017-09-29T20:59:41.281Z,-60
2017-09-29T21:02:09.828Z,-60
2017-09-29T21:04:38.377Z,-61
2017-09-29T21:07:06.721Z,-61
2017-09-29T21:09:35.341Z,-60
2017-09-29T21:12:03.995Z,-60
2017-09-29T21:14:32.620Z,-60
2017-09-29T21:17:00.944Z,-60
2017-09-29T21:19:29.459Z,-58
2017-09-29T21:21:57.783Z,-58
2017-09-29T21:24:26.132Z,-58
2017-09-29T21:26:54.428Z,-58
2017-09-29T21:29:23.099Z,-59
2017-09-29T21:31:51.424Z,-59
2017-09-29T21:34:20.441Z,-61
2017-09-29T21:36:48.743Z,-61
2017-09-29T21:39:17.192Z,-61
2017-09-29T21:41:45.750Z,-61
2017-09-29T21:44:14.803Z,-62
2017-09-29T21:46:43.385Z,-61
2017-09-29T21:49:11.722Z,-61
2017-09-29T21:51:40.907Z,-61
2017-09-29T21:54:09.206Z,-60
2017-09-29T21:56:37.799Z,-61
2017-09-29T21:59:06.383Z,-61
2017-09-29T22:01:34.675Z,-61
2017-09-29T22:04:03.215Z,-61
2017-09-29T22:06:32.334Z,-60
2017-09-29T22:09:00.655Z,-61
2017-09-29T22:11:28.975Z,-60
2017-09-29T22:13:57.742Z,-60
2017-09-29T22:16:26.042Z,-61
2017-09-29T22:18:55.091Z,-61
2017-09-29T22:21:23.415Z,-61
2017-09-29T22:23:52.462Z,-61
2017-09-29T22:26:20.747Z,-61
2017-09-29T22:28:49.092Z,-60
2017-09-29T22:34:01.114Z,-58
2017-09-29T22:36:30.383Z,-59
2017-09-29T22:38:58.689Z,-58
2017-09-29T22:41:27.011Z,-58
2017-09-29T22:43:55.361Z,-59
2017-09-29T22:46:23.896Z,-59
2017-09-29T22:48:53.014Z,-59
2017-09-29T22:51:21.419Z,-59
2017-09-29T22:53:49.864Z,-59
2017-09-29T22:56:18.791Z,-59
2017-09-29T22:58:47.483Z,-59
2017-09-29T23:01:15.826Z,-59
2017-09-29T23:03:44.230Z,-59
2017-09-29T23:06:12.957Z,-59
2017-09-29T23:08:41.299Z,-60
2017-09-29T23:11:09.654Z,-59
2017-09-29T23:13:38.008Z,-59
2017-09-29T23:16:07.225Z,-59
2017-09-29T23:18:35.822Z,-59
2017-09-29T23:21:04.470Z,-59
2017-09-29T23:23:32.794Z,-59
2017-09-29T23:26:01.160Z,-59
2017-09-29T23:28:29.508Z,-59
2017-09-29T23:30:58.735Z,-59
2017-09-29T23:33:27.081Z,-59
2017-09-29T23:35:55.387Z,-59
2017-09-29T23:38:24.146Z,-59
2017-09-29T23:40:52.479Z,-59
2017-09-29T23:43:21.217Z,-59
2017-09-29T23:45:50.406Z,-59
2017-09-29T23:48:18.738Z,-59
2017-09-29T23:50:47.049Z,-59
2017-09-29T23:53:15.487Z,-59
2017-09-29T23:55:44.195Z,-59
2017-09-29T23:58:12.527Z,-59
